Pagina principale
METAR-TAF:

METAR-TAF

Aeroporti :

Aeroporto militare

Ismailia, Egitto

latitudine: 30-35-54N, longitudine: 032-14-13E, altezza: 13 m

Osservazione

Il bollettino è stato emesso 7 ore e 55 minuti fa, alle 16:00 UTC
Vento 12 kt da nord
Temperature 33°C
Umidità 34%
Pressione 1006 hPa
Visibilità 10 km o più
Poco nuvoloso ad un'altezza di 2500 ft

METAR: HEIS 161600Z 36012KT 9999 FEW025 33/15 Q1006

Ora: 01:55 (23:55 UTC)


TAF: mancante

Osservazioni e previsioni meteorologiche di più di 4000 aeroporti (messaggi METAR e TAF).

Le stazioni disponibili sono rappresentate dai dischi gialli e rossi sulla carta.

Puntare il mouse per vedere il nome della stazione.

Clicca sopra per visualizzare le osservazioni e previsioni meteorologiche.

Per cambiare la mappa : fare clic sui pulsanti verdi con una croce nera per ingrandire, il pulsante verde con un trattino per diminuire, o sulla freccia verde per le mappe adiacenti.


METAR-TAF: